sensor_id;sensor_type;location;lat;lon;timestamp;pressure;altitude;pressure_sealevel;temperature;humidity
54329;BME280;40710;51.120;13.136;2022-10-22T00:02:08;99007.88;;;16.83;72.33
54329;BME280;40710;51.120;13.136;2022-10-22T00:04:33;98998.84;;;16.86;72.58
54329;BME280;40710;51.120;13.136;2022-10-22T00:06:58;98971.81;;;16.80;72.34
54329;BME280;40710;51.120;13.136;2022-10-22T00:09:22;98978.97;;;16.59;73.50
54329;BME280;40710;51.120;13.136;2022-10-22T00:11:47;98969.75;;;16.63;73.29
54329;BME280;40710;51.120;13.136;2022-10-22T00:14:12;98958.41;;;17.03;71.83
54329;BME280;40710;51.120;13.136;2022-10-22T00:16:36;98951.78;;;17.18;70.97
54329;BME280;40710;51.120;13.136;2022-10-22T00:19:01;98972.16;;;16.66;72.28
54329;BME280;40710;51.120;13.136;2022-10-22T00:21:25;98978.25;;;16.78;72.64
54329;BME280;40710;51.120;13.136;2022-10-22T00:23:52;98968.97;;;16.93;71.85
54329;BME280;40710;51.120;13.136;2022-10-22T00:26:17;98980.56;;;16.50;73.31
54329;BME280;40710;51.120;13.136;2022-10-22T00:28:41;98982.28;;;16.19;74.77
54329;BME280;40710;51.120;13.136;2022-10-22T00:31:06;98979.47;;;16.74;73.32
54329;BME280;40710;51.120;13.136;2022-10-22T00:33:30;98960.56;;;17.09;71.57
54329;BME280;40710;51.120;13.136;2022-10-22T00:35:55;98972.75;;;16.49;72.89
54329;BME280;40710;51.120;13.136;2022-10-22T00:38:20;98955.47;;;17.27;71.12
54329;BME280;40710;51.120;13.136;2022-10-22T00:40:45;98962.38;;;16.88;71.95
54329;BME280;40710;51.120;13.136;2022-10-22T00:43:11;98971.38;;;16.96;71.92
54329;BME280;40710;51.120;13.136;2022-10-22T00:45:35;98981.84;;;16.77;72.66
54329;BME280;40710;51.120;13.136;2022-10-22T00:48:04;98999.16;;;16.71;73.24
54329;BME280;40710;51.120;13.136;2022-10-22T00:50:35;99000.88;;;16.40;74.07
54329;BME280;40710;51.120;13.136;2022-10-22T00:53:03;98994.03;;;16.79;73.09
54329;BME280;40710;51.120;13.136;2022-10-22T00:55:32;98995.97;;;16.98;72.85
54329;BME280;40710;51.120;13.136;2022-10-22T00:57:57;98981.25;;;17.15;71.78
54329;BME280;40710;51.120;13.136;2022-10-22T01:00:22;98987.94;;;17.10;71.34
54329;BME280;40710;51.120;13.136;2022-10-22T01:02:49;98997.91;;;16.75;72.43
54329;BME280;40710;51.120;13.136;2022-10-22T01:05:15;98975.13;;;17.15;71.72
54329;BME280;40710;51.120;13.136;2022-10-22T01:07:44;98967.09;;;17.36;70.85
54329;BME280;40710;51.120;13.136;2022-10-22T01:18:16;98997.03;;;16.86;72.03
54329;BME280;40710;51.120;13.136;2022-10-22T01:20:55;98981.25;;;17.15;72.08
54329;BME280;40710;51.120;13.136;2022-10-22T01:26:48;98978.03;;;17.52;70.25
54329;BME280;40710;51.120;13.136;2022-10-22T01:29:42;98970.06;;;17.43;70.57
54329;BME280;40710;51.120;13.136;2022-10-22T01:32:15;98988.88;;;16.78;72.63
54329;BME280;40710;51.120;13.136;2022-10-22T01:34:45;98980.56;;;17.13;72.09
54329;BME280;40710;51.120;13.136;2022-10-22T01:37:13;98974.34;;;17.34;71.91
54329;BME280;40710;51.120;13.136;2022-10-22T01:39:40;98988.47;;;17.04;72.16
54329;BME280;40710;51.120;13.136;2022-10-22T01:42:07;98988.47;;;17.04;72.63
54329;BME280;40710;51.120;13.136;2022-10-22T01:44:34;98984.41;;;17.30;71.99
54329;BME280;40710;51.120;13.136;2022-10-22T01:58:31;98968.31;;;17.72;71.00
54329;BME280;40710;51.120;13.136;2022-10-22T02:03:44;98979.56;;;17.14;72.74
54329;BME280;40710;51.120;13.136;2022-10-22T02:06:18;98990.47;;;16.69;73.46
54329;BME280;40710;51.120;13.136;2022-10-22T02:08:45;98989.25;;;16.73;73.48
54329;BME280;40710;51.120;13.136;2022-10-22T02:11:13;98989.38;;;16.51;73.74
54329;BME280;40710;51.120;13.136;2022-10-22T02:13:46;98980.00;;;16.68;73.81
54329;BME280;40710;51.120;13.136;2022-10-22T02:16:21;98955.59;;;17.26;71.95
54329;BME280;40710;51.120;13.136;2022-10-22T02:18:51;98962.78;;;17.45;71.38
54329;BME280;40710;51.120;13.136;2022-10-22T02:21:17;98974.28;;;16.72;72.96
54329;BME280;40710;51.120;13.136;2022-10-22T02:23:42;98953.69;;;17.37;71.53
54329;BME280;40710;51.120;13.136;2022-10-22T02:26:21;98977.66;;;16.53;74.18
54329;BME280;40710;51.120;13.136;2022-10-22T02:28:51;98940.56;;;17.55;70.97
54329;BME280;40710;51.120;13.136;2022-10-22T02:31:26;98947.19;;;17.20;72.63
54329;BME280;40710;51.120;13.136;2022-10-22T02:33:55;98947.09;;;17.01;72.69
54329;BME280;40710;51.120;13.136;2022-10-22T02:36:23;98945.34;;;17.11;71.56
54329;BME280;40710;51.120;13.136;2022-10-22T02:38:50;98961.75;;;16.95;72.97
54329;BME280;40710;51.120;13.136;2022-10-22T02:41:17;98972.22;;;16.97;72.96
54329;BME280;40710;51.120;13.136;2022-10-22T02:43:48;98941.31;;;17.27;71.74
54329;BME280;40710;51.120;13.136;2022-10-22T02:46:13;98947.69;;;17.14;71.53
54329;BME280;40710;51.120;13.136;2022-10-22T02:48:38;98947.69;;;17.14;72.00
54329;BME280;40710;51.120;13.136;2022-10-22T02:51:03;98953.94;;;17.04;71.60
54329;BME280;40710;51.120;13.136;2022-10-22T02:53:27;98948.50;;;17.36;71.08
54329;BME280;40710;51.120;13.136;2022-10-22T02:55:52;98967.56;;;16.68;72.75
54329;BME280;40710;51.120;13.136;2022-10-22T02:58:16;98974.34;;;16.61;73.62
54329;BME280;40710;51.120;13.136;2022-10-22T03:00:41;98966.19;;;16.74;73.30
54329;BME280;40710;51.120;13.136;2022-10-22T03:03:05;98955.59;;;16.95;72.57
54329;BME280;40710;51.120;13.136;2022-10-22T03:05:30;98958.56;;;16.80;72.78
54329;BME280;40710;51.120;13.136;2022-10-22T03:07:55;98961.22;;;16.80;73.22
54329;BME280;40710;51.120;13.136;2022-10-22T03:10:19;98972.94;;;16.36;74.75
54329;BME280;40710;51.120;13.136;2022-10-22T03:12:44;98971.97;;;16.58;73.81
54329;BME280;40710;51.120;13.136;2022-10-22T03:15:09;98964.41;;;16.95;72.73
54329;BME280;40710;51.120;13.136;2022-10-22T03:17:33;98959.59;;;16.89;72.88
54329;BME280;40710;51.120;13.136;2022-10-22T03:19:58;98962.53;;;16.86;73.25
54329;BME280;40710;51.120;13.136;2022-10-22T03:22:26;98959.66;;;16.78;73.73
54329;BME280;40710;51.120;13.136;2022-10-22T03:24:57;98974.72;;;16.35;74.14
54329;BME280;40710;51.120;13.136;2022-10-22T03:27:22;98975.84;;;16.96;73.71
54329;BME280;40710;51.120;13.136;2022-10-22T03:29:49;98984.38;;;16.78;72.61
54329;BME280;40710;51.120;13.136;2022-10-22T03:32:15;98982.69;;;16.77;73.01
54329;BME280;40710;51.120;13.136;2022-10-22T03:34:40;98995.22;;;16.66;73.88
54329;BME280;40710;51.120;13.136;2022-10-22T03:37:04;98999.41;;;16.68;74.08
54329;BME280;40710;51.120;13.136;2022-10-22T03:39:32;99014.34;;;16.48;74.98
54329;BME280;40710;51.120;13.136;2022-10-22T03:41:58;98997.53;;;16.80;73.66
54329;BME280;40710;51.120;13.136;2022-10-22T03:44:23;99004.81;;;16.45;74.99
54329;BME280;40710;51.120;13.136;2022-10-22T03:46:50;99022.09;;;16.40;75.54
54329;BME280;40710;51.120;13.136;2022-10-22T03:49:14;99005.88;;;16.75;74.29
54329;BME280;40710;51.120;13.136;2022-10-22T03:51:39;99013.44;;;16.80;73.79
54329;BME280;40710;51.120;13.136;2022-10-22T03:54:04;99009.09;;;16.58;73.89
54329;BME280;40710;51.120;13.136;2022-10-22T03:56:29;99005.69;;;16.88;74.18
54329;BME280;40710;51.120;13.136;2022-10-22T03:58:58;99004.06;;;16.97;73.50
54329;BME280;40710;51.120;13.136;2022-10-22T04:01:24;99001.94;;;16.91;73.56
54329;BME280;40710;51.120;13.136;2022-10-22T04:03:49;98993.81;;;17.13;73.24
54329;BME280;40710;51.120;13.136;2022-10-22T04:06:14;98975.19;;;17.44;71.95
54329;BME280;40710;51.120;13.136;2022-10-22T04:08:40;98989.25;;;16.94;73.50
54329;BME280;40710;51.120;13.136;2022-10-22T04:11:05;98984.88;;;16.84;73.38
54329;BME280;40710;51.120;13.136;2022-10-22T04:13:30;98976.84;;;17.26;72.26
54329;BME280;40710;51.120;13.136;2022-10-22T04:15:55;98961.03;;;17.84;70.30
54329;BME280;40710;51.120;13.136;2022-10-22T04:18:21;98957.19;;;17.88;69.61
54329;BME280;40710;51.120;13.136;2022-10-22T04:20:46;98970.63;;;17.56;70.96
54329;BME280;40710;51.120;13.136;2022-10-22T04:23:11;98966.63;;;17.71;70.30
54329;BME280;40710;51.120;13.136;2022-10-22T04:25:35;98965.84;;;17.90;69.94
54329;BME280;40710;51.120;13.136;2022-10-22T04:28:00;98968.31;;;17.82;70.30
54329;BME280;40710;51.120;13.136;2022-10-22T04:30:25;98968.97;;;17.65;70.43
54329;BME280;40710;51.120;13.136;2022-10-22T04:32:49;98971.31;;;17.89;69.68
54329;BME280;40710;51.120;13.136;2022-10-22T04:35:14;98968.22;;;18.03;69.03
54329;BME280;40710;51.120;13.136;2022-10-22T04:37:38;98976.13;;;17.74;69.66
54329;BME280;40710;51.120;13.136;2022-10-22T04:40:03;98975.38;;;18.03;69.47
54329;BME280;40710;51.120;13.136;2022-10-22T04:42:28;98976.63;;;18.08;68.88
54329;BME280;40710;51.120;13.136;2022-10-22T04:44:52;98980.94;;;17.90;69.45
54329;BME280;40710;51.120;13.136;2022-10-22T04:47:17;98987.16;;;17.60;70.51
54329;BME280;40710;51.120;13.136;2022-10-22T04:49:42;98979.41;;;17.87;69.83
54329;BME280;40710;51.120;13.136;2022-10-22T04:52:06;98985.56;;;17.47;71.26
54329;BME280;40710;51.120;13.136;2022-10-22T04:54:31;98982.25;;;17.65;70.78
54329;BME280;40710;51.120;13.136;2022-10-22T04:56:55;98979.94;;;17.31;71.86
54329;BME280;40710;51.120;13.136;2022-10-22T04:59:20;98976.63;;;17.48;71.23
54329;BME280;40710;51.120;13.136;2022-10-22T05:01:44;98976.84;;;17.35;71.59
54329;BME280;40710;51.120;13.136;2022-10-22T05:04:16;98968.97;;;17.55;70.95
54329;BME280;40710;51.120;13.136;2022-10-22T05:06:42;98973.13;;;17.48;71.14
54329;BME280;40710;51.120;13.136;2022-10-22T05:09:11;98964.09;;;17.70;70.28
54329;BME280;40710;51.120;13.136;2022-10-22T05:11:38;98980.03;;;17.60;70.21
54329;BME280;40710;51.120;13.136;2022-10-22T05:14:10;98985.50;;;17.68;70.31
54329;BME280;40710;51.120;13.136;2022-10-22T05:16:35;98990.69;;;17.29;71.28
54329;BME280;40710;51.120;13.136;2022-10-22T05:19:02;98999.09;;;17.44;71.59
54329;BME280;40710;51.120;13.136;2022-10-22T05:21:27;98999.78;;;17.77;69.86
54329;BME280;40710;51.120;13.136;2022-10-22T05:23:52;98993.06;;;17.73;69.88
54329;BME280;40710;51.120;13.136;2022-10-22T05:26:20;98995.88;;;17.31;71.18
54329;BME280;40710;51.120;13.136;2022-10-22T05:28:46;98993.81;;;17.94;69.38
54329;BME280;40710;51.120;13.136;2022-10-22T05:31:12;98999.88;;;18.06;68.77
54329;BME280;40710;51.120;13.136;2022-10-22T05:33:37;99005.84;;;17.89;69.09
54329;BME280;40710;51.120;13.136;2022-10-22T05:36:04;99002.19;;;17.90;69.15
54329;BME280;40710;51.120;13.136;2022-10-22T05:38:30;99002.72;;;17.84;69.44
54329;BME280;40710;51.120;13.136;2022-10-22T05:40:59;99002.22;;;18.00;68.98
54329;BME280;40710;51.120;13.136;2022-10-22T05:43:25;99007.94;;;17.45;70.79
54329;BME280;40710;51.120;13.136;2022-10-22T05:45:49;99014.59;;;17.70;70.19
54329;BME280;40710;51.120;13.136;2022-10-22T05:48:14;99011.44;;;17.86;69.63
54329;BME280;40710;51.120;13.136;2022-10-22T05:50:38;99009.53;;;18.17;68.39
54329;BME280;40710;51.120;13.136;2022-10-22T05:53:04;99007.28;;;18.12;68.54
54329;BME280;40710;51.120;13.136;2022-10-22T05:55:29;99001.13;;;18.02;69.02
54329;BME280;40710;51.120;13.136;2022-10-22T05:57:54;98991.72;;;17.98;68.86
54329;BME280;40710;51.120;13.136;2022-10-22T06:00:19;98998.19;;;17.95;69.10
54329;BME280;40710;51.120;13.136;2022-10-22T06:02:43;99006.44;;;18.02;68.87
54329;BME280;40710;51.120;13.136;2022-10-22T06:05:12;99013.47;;;18.13;68.59
54329;BME280;40710;51.120;13.136;2022-10-22T06:07:36;99016.50;;;17.99;69.08
54329;BME280;40710;51.120;13.136;2022-10-22T06:10:01;99027.00;;;17.90;69.64
54329;BME280;40710;51.120;13.136;2022-10-22T06:12:26;99029.09;;;17.97;68.98
54329;BME280;40710;51.120;13.136;2022-10-22T06:14:50;99020.44;;;18.04;68.63
54329;BME280;40710;51.120;13.136;2022-10-22T06:17:15;99036.41;;;18.14;68.16
54329;BME280;40710;51.120;13.136;2022-10-22T06:19:39;99036.66;;;18.01;68.78
54329;BME280;40710;51.120;13.136;2022-10-22T06:22:05;99035.56;;;18.13;68.34
54329;BME280;40710;51.120;13.136;2022-10-22T06:24:30;99034.41;;;17.97;69.08
54329;BME280;40710;51.120;13.136;2022-10-22T06:26:54;99042.41;;;18.16;68.28
54329;BME280;40710;51.120;13.136;2022-10-22T06:29:19;99038.22;;;18.13;68.39
54329;BME280;40710;51.120;13.136;2022-10-22T06:31:43;99044.66;;;18.11;68.61
54329;BME280;40710;51.120;13.136;2022-10-22T06:34:13;99058.75;;;18.02;68.99
54329;BME280;40710;51.120;13.136;2022-10-22T06:36:39;99061.88;;;18.26;68.14
54329;BME280;40710;51.120;13.136;2022-10-22T06:39:05;99071.94;;;18.03;68.67
54329;BME280;40710;51.120;13.136;2022-10-22T06:41:30;99074.19;;;18.18;68.13
54329;BME280;40710;51.120;13.136;2022-10-22T06:43:55;99076.28;;;18.14;68.71
54329;BME280;40710;51.120;13.136;2022-10-22T06:46:21;99087.28;;;17.90;69.70
54329;BME280;40710;51.120;13.136;2022-10-22T06:48:50;99087.50;;;18.08;68.84
54329;BME280;40710;51.120;13.136;2022-10-22T06:51:15;99089.38;;;17.65;70.61
54329;BME280;40710;51.120;13.136;2022-10-22T06:53:40;99106.63;;;17.40;71.45
54329;BME280;40710;51.120;13.136;2022-10-22T06:56:13;99098.53;;;18.03;70.03
54329;BME280;40710;51.120;13.136;2022-10-22T06:58:38;99111.66;;;17.74;71.51
54329;BME280;40710;51.120;13.136;2022-10-22T07:01:05;99121.78;;;17.80;71.25
54329;BME280;40710;51.120;13.136;2022-10-22T07:03:30;99109.19;;;18.13;70.08
54329;BME280;40710;51.120;13.136;2022-10-22T07:05:58;99107.63;;;18.10;70.23
54329;BME280;40710;51.120;13.136;2022-10-22T07:08:22;99134.16;;;17.60;71.79
54329;BME280;40710;51.120;13.136;2022-10-22T07:10:47;99129.22;;;17.86;70.90
54329;BME280;40710;51.120;13.136;2022-10-22T07:13:11;99129.34;;;18.06;70.88
54329;BME280;40710;51.120;13.136;2022-10-22T07:15:36;99144.75;;;17.81;71.54
54329;BME280;40710;51.120;13.136;2022-10-22T07:18:01;99151.28;;;17.46;72.76
54329;BME280;40710;51.120;13.136;2022-10-22T07:20:27;99162.94;;;17.55;72.89
54329;BME280;40710;51.120;13.136;2022-10-22T07:22:52;99178.66;;;17.26;74.30
54329;BME280;40710;51.120;13.136;2022-10-22T07:25:17;99160.88;;;17.89;72.60
54329;BME280;40710;51.120;13.136;2022-10-22T07:27:41;99178.00;;;17.12;73.83
54329;BME280;40710;51.120;13.136;2022-10-22T07:30:06;99174.44;;;17.65;73.43
54329;BME280;40710;51.120;13.136;2022-10-22T07:32:31;99170.31;;;17.82;72.21
54329;BME280;40710;51.120;13.136;2022-10-22T07:34:56;99179.28;;;17.39;73.60
54329;BME280;40710;51.120;13.136;2022-10-22T07:37:20;99187.09;;;17.31;73.03
54329;BME280;40710;51.120;13.136;2022-10-22T07:39:45;99171.28;;;17.50;72.41
54329;BME280;40710;51.120;13.136;2022-10-22T07:42:10;99178.41;;;17.08;72.21
54329;BME280;40710;51.120;13.136;2022-10-22T07:44:34;99195.50;;;16.71;74.46
54329;BME280;40710;51.120;13.136;2022-10-22T07:46:59;99198.16;;;16.60;74.64
54329;BME280;40710;51.120;13.136;2022-10-22T07:49:23;99203.47;;;16.71;73.81
54329;BME280;40710;51.120;13.136;2022-10-22T07:51:48;99208.53;;;16.63;73.57
54329;BME280;40710;51.120;13.136;2022-10-22T07:54:12;99188.59;;;17.24;71.77
54329;BME280;40710;51.120;13.136;2022-10-22T07:56:37;99197.03;;;17.17;71.84
54329;BME280;40710;51.120;13.136;2022-10-22T07:59:01;99195.94;;;16.99;70.95
54329;BME280;40710;51.120;13.136;2022-10-22T08:01:26;99194.81;;;17.34;70.46
54329;BME280;40710;51.120;13.136;2022-10-22T08:03:50;99185.03;;;17.02;70.47
54329;BME280;40710;51.120;13.136;2022-10-22T08:06:15;99205.19;;;17.05;70.94
54329;BME280;40710;51.120;13.136;2022-10-22T08:08:41;99200.75;;;17.26;70.03
54329;BME280;40710;51.120;13.136;2022-10-22T08:11:08;99205.78;;;17.08;71.04
54329;BME280;40710;51.120;13.136;2022-10-22T08:13:33;99203.16;;;16.97;70.23
54329;BME280;40710;51.120;13.136;2022-10-22T08:15:58;99197.59;;;17.00;69.71
54329;BME280;40710;51.120;13.136;2022-10-22T08:18:24;99212.09;;;16.96;70.09
54329;BME280;40710;51.120;13.136;2022-10-22T08:20:49;99203.75;;;17.54;69.17
54329;BME280;40710;51.120;13.136;2022-10-22T08:23:14;99198.16;;;17.78;68.03
54329;BME280;40710;51.120;13.136;2022-10-22T08:25:39;99215.19;;;17.54;68.62
54329;BME280;40710;51.120;13.136;2022-10-22T08:28:03;99215.19;;;17.54;68.15
54329;BME280;40710;51.120;13.136;2022-10-22T08:30:28;99212.03;;;17.18;68.90
54329;BME280;40710;51.120;13.136;2022-10-22T08:32:53;99210.63;;;17.03;68.87
54329;BME280;40710;51.120;13.136;2022-10-22T08:35:17;99211.38;;;17.47;67.87
54329;BME280;40710;51.120;13.136;2022-10-22T08:37:42;99206.97;;;17.36;67.40
54329;BME280;40710;51.120;13.136;2022-10-22T08:40:07;99212.88;;;17.61;66.98
54329;BME280;40710;51.120;13.136;2022-10-22T08:45:38;99202.84;;;17.86;66.16
54329;BME280;40710;51.120;13.136;2022-10-22T08:48:20;99201.53;;;17.59;66.49
54329;BME280;40710;51.120;13.136;2022-10-22T08:50:51;99196.13;;;17.91;66.01
54329;BME280;40710;51.120;13.136;2022-10-22T08:53:21;99205.69;;;17.52;66.89
54329;BME280;40710;51.120;13.136;2022-10-22T08:55:52;99204.25;;;17.48;66.47
54329;BME280;40710;51.120;13.136;2022-10-22T08:58:22;99206.84;;;17.59;67.21
54329;BME280;40710;51.120;13.136;2022-10-22T09:00:59;99189.81;;;18.13;65.33
54329;BME280;40710;51.120;13.136;2022-10-22T09:03:35;99186.75;;;17.87;65.31
54329;BME280;40710;51.120;13.136;2022-10-22T09:06:08;99182.66;;;18.14;64.72
54329;BME280;40710;51.120;13.136;2022-10-22T09:08:36;99179.84;;;18.56;64.23
54329;BME280;40710;51.120;13.136;2022-10-22T09:11:06;99182.59;;;18.25;64.23
54329;BME280;40710;51.120;13.136;2022-10-22T09:13:38;99180.66;;;18.47;63.81
54329;BME280;40710;51.120;13.136;2022-10-22T09:19:17;99171.19;;;19.42;61.21
54329;BME280;40710;51.120;13.136;2022-10-22T09:21:59;99169.69;;;19.20;61.70
54329;BME280;40710;51.120;13.136;2022-10-22T09:24:47;99164.19;;;18.73;63.41
54329;BME280;40710;51.120;13.136;2022-10-22T09:27:15;99170.50;;;18.81;63.25
54329;BME280;40710;51.120;13.136;2022-10-22T09:29:42;99165.59;;;18.77;62.67
54329;BME280;40710;51.120;13.136;2022-10-22T09:32:07;99164.78;;;19.25;61.87
54329;BME280;40710;51.120;13.136;2022-10-22T09:34:32;99157.97;;;19.60;61.83
54329;BME280;40710;51.120;13.136;2022-10-22T09:36:59;99157.59;;;19.55;62.15
54329;BME280;40710;51.120;13.136;2022-10-22T09:39:27;99143.44;;;20.19;59.90
54329;BME280;40710;51.120;13.136;2022-10-22T09:41:52;99155.84;;;19.73;60.83
54329;BME280;40710;51.120;13.136;2022-10-22T09:44:18;99149.81;;;19.71;59.81
54329;BME280;40710;51.120;13.136;2022-10-22T09:46:42;99151.38;;;20.11;58.58
54329;BME280;40710;51.120;13.136;2022-10-22T09:49:12;99170.50;;;19.50;60.01
54329;BME280;40710;51.120;13.136;2022-10-22T09:51:48;99163.78;;;20.02;58.96
54329;BME280;40710;51.120;13.136;2022-10-22T09:54:36;99182.19;;;19.10;60.61
54329;BME280;40710;51.120;13.136;2022-10-22T09:57:16;99183.28;;;19.26;60.21
54329;BME280;40710;51.120;13.136;2022-10-22T09:59:43;99178.13;;;19.25;60.35
54329;BME280;40710;51.120;13.136;2022-10-22T10:04:34;99207.84;;;19.01;61.50
54329;BME280;40710;51.120;13.136;2022-10-22T10:07:18;99208.56;;;18.12;64.53
54329;BME280;40710;51.120;13.136;2022-10-22T10:09:44;99207.69;;;19.22;61.90
54329;BME280;40710;51.120;13.136;2022-10-22T10:12:31;99210.72;;;19.66;60.50
54329;BME280;40710;51.120;13.136;2022-10-22T10:15:19;99212.16;;;19.31;61.67
54329;BME280;40710;51.120;13.136;2022-10-22T10:21:19;99207.38;;;19.64;61.08
54329;BME280;40710;51.120;13.136;2022-10-22T10:23:57;99197.66;;;19.63;60.68
54329;BME280;40710;51.120;13.136;2022-10-22T10:26:38;99199.09;;;19.77;60.70
54329;BME280;40710;51.120;13.136;2022-10-22T10:32:18;99206.97;;;19.00;62.02
54329;BME280;40710;51.120;13.136;2022-10-22T10:35:01;99186.66;;;20.33;58.83
54329;BME280;40710;51.120;13.136;2022-10-22T10:37:42;99195.84;;;19.73;59.67
54329;BME280;40710;51.120;13.136;2022-10-22T10:43:10;99184.09;;;20.87;57.13
54329;BME280;40710;51.120;13.136;2022-10-22T10:53:43;99191.25;;;21.58;54.31
54329;BME280;40710;51.120;13.136;2022-10-22T10:56:34;99187.63;;;22.79;52.23
54329;BME280;40710;51.120;13.136;2022-10-22T10:59:04;99181.31;;;23.70;49.47
54329;BME280;40710;51.120;13.136;2022-10-22T11:07:12;99180.22;;;25.67;44.57
54329;BME280;40710;51.120;13.136;2022-10-22T11:09:55;99194.78;;;24.89;45.76
54329;BME280;40710;51.120;13.136;2022-10-22T11:12:28;99193.66;;;25.06;46.56
54329;BME280;40710;51.120;13.136;2022-10-22T11:15:08;99186.75;;;25.88;43.62
54329;BME280;40710;51.120;13.136;2022-10-22T11:17:42;99187.78;;;26.17;44.31
54329;BME280;40710;51.120;13.136;2022-10-22T11:20:34;99197.28;;;24.90;45.24
54329;BME280;40710;51.120;13.136;2022-10-22T11:23:13;99207.31;;;23.62;47.13
54329;BME280;40710;51.120;13.136;2022-10-22T11:25:44;99216.03;;;23.39;48.16
54329;BME280;40710;51.120;13.136;2022-10-22T11:28:25;99193.75;;;24.67;45.85
54329;BME280;40710;51.120;13.136;2022-10-22T11:31:03;99192.94;;;25.13;44.74
54329;BME280;40710;51.120;13.136;2022-10-22T11:33:56;99193.66;;;25.06;44.84
54329;BME280;40710;51.120;13.136;2022-10-22T11:36:26;99186.69;;;26.99;41.45
54329;BME280;40710;51.120;13.136;2022-10-22T11:38:51;99177.09;;;26.75;41.76
54329;BME280;40710;51.120;13.136;2022-10-22T11:41:23;99183.47;;;26.89;40.94
54329;BME280;40710;51.120;13.136;2022-10-22T11:48:43;99203.97;;;26.02;42.93
54329;BME280;40710;51.120;13.136;2022-10-22T11:51:34;99186.59;;;27.57;39.77
54329;BME280;40710;51.120;13.136;2022-10-22T11:54:46;99180.47;;;27.70;38.61
54329;BME280;40710;51.120;13.136;2022-10-22T11:56:45;99188.84;;;27.82;39.75
54329;BME280;40710;51.120;13.136;2022-10-22T11:59:37;99191.81;;;27.87;38.66
54329;BME280;40710;51.120;13.136;2022-10-22T12:04:46;99192.50;;;27.67;38.88
54329;BME280;40710;51.120;13.136;2022-10-22T12:07:34;99212.09;;;26.53;41.11
54329;BME280;40710;51.120;13.136;2022-10-22T12:10:19;99207.19;;;27.58;40.00
54329;BME280;40710;51.120;13.136;2022-10-22T12:12:54;99190.25;;;27.99;40.21
54329;BME280;40710;51.120;13.136;2022-10-22T12:15:26;99186.97;;;28.45;38.92
54329;BME280;40710;51.120;13.136;2022-10-22T12:17:58;99193.28;;;28.18;39.19
54329;BME280;40710;51.120;13.136;2022-10-22T12:20:25;99194.69;;;27.85;38.80
54329;BME280;40710;51.120;13.136;2022-10-22T12:22:51;99194.38;;;27.95;39.55
54329;BME280;40710;51.120;13.136;2022-10-22T12:25:25;99186.00;;;27.90;39.44
54329;BME280;40710;51.120;13.136;2022-10-22T12:27:55;99199.09;;;27.58;40.04
54329;BME280;40710;51.120;13.136;2022-10-22T12:30:30;99199.63;;;28.45;39.03
54329;BME280;40710;51.120;13.136;2022-10-22T12:32:58;99202.94;;;27.49;39.33
54329;BME280;40710;51.120;13.136;2022-10-22T12:35:26;99201.41;;;27.61;40.01
54329;BME280;40710;51.120;13.136;2022-10-22T12:37:54;99211.78;;;27.36;40.17
54329;BME280;40710;51.120;13.136;2022-10-22T12:40:25;99196.13;;;27.81;39.20
54329;BME280;40710;51.120;13.136;2022-10-22T12:42:54;99201.78;;;27.37;39.69
54329;BME280;40710;51.120;13.136;2022-10-22T12:45:20;99200.53;;;27.32;40.06
54329;BME280;40710;51.120;13.136;2022-10-22T12:47:50;99208.00;;;27.30;40.81
54329;BME280;40710;51.120;13.136;2022-10-22T12:50:22;99199.34;;;27.63;39.81
54329;BME280;40710;51.120;13.136;2022-10-22T12:52:48;99211.56;;;27.16;41.81
54329;BME280;40710;51.120;13.136;2022-10-22T12:55:18;99198.88;;;27.88;39.51
54329;BME280;40710;51.120;13.136;2022-10-22T12:57:47;99200.28;;;27.27;40.59
54329;BME280;40710;51.120;13.136;2022-10-22T13:00:24;99211.63;;;26.35;41.01
54329;BME280;40710;51.120;13.136;2022-10-22T13:02:49;99195.63;;;27.00;40.28
54329;BME280;40710;51.120;13.136;2022-10-22T13:05:22;99195.78;;;27.91;39.04
54329;BME280;40710;51.120;13.136;2022-10-22T13:08:02;99200.19;;;26.99;39.85
54329;BME280;40710;51.120;13.136;2022-10-22T13:10:32;99194.31;;;27.88;38.55
54329;BME280;40710;51.120;13.136;2022-10-22T13:12:58;99215.06;;;26.58;40.78
54329;BME280;40710;51.120;13.136;2022-10-22T13:18:19;99213.09;;;26.52;39.73
54329;BME280;40710;51.120;13.136;2022-10-22T13:20:58;99204.50;;;26.93;38.57
54329;BME280;40710;51.120;13.136;2022-10-22T13:23:30;99209.63;;;27.10;38.66
54329;BME280;40710;51.120;13.136;2022-10-22T13:25:57;99214.63;;;26.91;39.33
54329;BME280;40710;51.120;13.136;2022-10-22T13:28:23;99223.38;;;26.12;40.14
54329;BME280;40710;51.120;13.136;2022-10-22T13:30:57;99204.94;;;27.40;38.80
54329;BME280;40710;51.120;13.136;2022-10-22T13:33:26;99205.06;;;26.89;39.06
54329;BME280;40710;51.120;13.136;2022-10-22T13:35:54;99201.78;;;27.58;37.72
54329;BME280;40710;51.120;13.136;2022-10-22T13:38:22;99197.13;;;27.73;37.39
54329;BME280;40710;51.120;13.136;2022-10-22T13:40:47;99200.00;;;27.01;37.46
54329;BME280;40710;51.120;13.136;2022-10-22T13:43:12;99199.84;;;26.87;38.11
54329;BME280;40710;51.120;13.136;2022-10-22T13:45:37;99199.09;;;27.37;36.73
54329;BME280;40710;51.120;13.136;2022-10-22T13:48:02;99199.97;;;27.65;37.24
54329;BME280;40710;51.120;13.136;2022-10-22T13:50:27;99209.63;;;26.88;38.13
54329;BME280;40710;51.120;13.136;2022-10-22T13:52:54;99207.13;;;27.51;37.05
54329;BME280;40710;51.120;13.136;2022-10-22T13:55:25;99205.00;;;27.25;37.71
54329;BME280;40710;51.120;13.136;2022-10-22T13:57:55;99209.13;;;27.43;37.37
54329;BME280;40710;51.120;13.136;2022-10-22T14:00:21;99203.94;;;27.69;36.45
54329;BME280;40710;51.120;13.136;2022-10-22T14:02:49;99209.19;;;27.28;37.42
54329;BME280;40710;51.120;13.136;2022-10-22T14:05:16;99228.25;;;26.38;39.04